Varennes, Canada
Current Conditions -  °F | °C
As of 2:00 PM on Monday 22 Dec 2014 (Local Time) from CYHU Reporting Station
Overcast Overcast  
Wind Chill:   Ceiling: 3500
Heat Index: 19°   Visibility: 9mi
Dew Point: 16°   Wind: 9mph
Humidity: 86%   Direction: 10°N
Pressure: 30.38"   Gusts: NA
Location:  45.68°N, 73.43°W
Report Text: CYHU 221900Z AUTO 01008KT 9SM OVC035 M07/M09 A3038 RMK SLP289
Loading
Personal Weather Stations






























Interactive Weather Map New forecast layout! Learn more

10-Day Weather Forecast

Advertisements
Track Severe Weather on mobile